sensor_id;sensor_type;location;lat;lon;timestamp;P1;durP1;ratioP1;P2;durP2;ratioP2
73089;SDS011;61269;49.450;8.610;2023-04-07T00:01:08;8.63;;;3.35;;
73089;SDS011;61269;49.450;8.610;2023-04-07T00:03:37;7.03;;;3.10;;
73089;SDS011;61269;49.450;8.610;2023-04-07T00:06:06;5.65;;;2.88;;
73089;SDS011;61269;49.450;8.610;2023-04-07T00:08:34;5.10;;;2.35;;
73089;SDS011;61269;49.450;8.610;2023-04-07T00:11:03;7.20;;;2.53;;
73089;SDS011;61269;49.450;8.610;2023-04-07T00:13:31;5.85;;;2.75;;
73089;SDS011;61269;49.450;8.610;2023-04-07T00:15:59;7.43;;;2.60;;
73089;SDS011;61269;49.450;8.610;2023-04-07T00:18:27;6.00;;;2.70;;
73089;SDS011;61269;49.450;8.610;2023-04-07T00:20:57;6.22;;;2.80;;
73089;SDS011;61269;49.450;8.610;2023-04-07T00:23:25;6.37;;;2.73;;
73089;SDS011;61269;49.450;8.610;2023-04-07T00:25:53;8.10;;;3.10;;
73089;SDS011;61269;49.450;8.610;2023-04-07T00:28:21;6.18;;;2.95;;
73089;SDS011;61269;49.450;8.610;2023-04-07T00:30:50;6.75;;;2.95;;
73089;SDS011;61269;49.450;8.610;2023-04-07T00:33:18;6.43;;;3.17;;
73089;SDS011;61269;49.450;8.610;2023-04-07T00:35:46;6.47;;;3.47;;
73089;SDS011;61269;49.450;8.610;2023-04-07T00:38:15;5.22;;;2.67;;
73089;SDS011;61269;49.450;8.610;2023-04-07T00:40:44;6.50;;;3.00;;
73089;SDS011;61269;49.450;8.610;2023-04-07T00:43:12;6.45;;;2.35;;
73089;SDS011;61269;49.450;8.610;2023-04-07T00:45:40;6.10;;;2.85;;
73089;SDS011;61269;49.450;8.610;2023-04-07T00:48:09;6.73;;;3.03;;
73089;SDS011;61269;49.450;8.610;2023-04-07T00:50:37;7.22;;;3.38;;
73089;SDS011;61269;49.450;8.610;2023-04-07T00:53:05;7.00;;;3.00;;
73089;SDS011;61269;49.450;8.610;2023-04-07T00:55:36;7.10;;;3.22;;
73089;SDS011;61269;49.450;8.610;2023-04-07T00:58:04;6.68;;;3.17;;
73089;SDS011;61269;49.450;8.610;2023-04-07T01:00:32;7.63;;;2.93;;
73089;SDS011;61269;49.450;8.610;2023-04-07T01:03:05;6.35;;;3.03;;
73089;SDS011;61269;49.450;8.610;2023-04-07T01:05:41;6.28;;;3.00;;
73089;SDS011;61269;49.450;8.610;2023-04-07T01:08:12;8.68;;;3.70;;
73089;SDS011;61269;49.450;8.610;2023-04-07T01:10:46;8.27;;;2.90;;
73089;SDS011;61269;49.450;8.610;2023-04-07T01:13:21;5.87;;;2.67;;
73089;SDS011;61269;49.450;8.610;2023-04-07T01:15:56;6.20;;;3.30;;
73089;SDS011;61269;49.450;8.610;2023-04-07T01:18:30;7.60;;;3.28;;
73089;SDS011;61269;49.450;8.610;2023-04-07T01:21:01;7.00;;;2.78;;
73089;SDS011;61269;49.450;8.610;2023-04-07T01:23:34;6.68;;;3.22;;
73089;SDS011;61269;49.450;8.610;2023-04-07T01:26:17;7.03;;;3.07;;
73089;SDS011;61269;49.450;8.610;2023-04-07T01:29:03;6.28;;;3.33;;
73089;SDS011;61269;49.450;8.610;2023-04-07T01:31:39;9.30;;;3.35;;
73089;SDS011;61269;49.450;8.610;2023-04-07T01:34:08;7.05;;;3.00;;
73089;SDS011;61269;49.450;8.610;2023-04-07T01:36:37;6.28;;;2.92;;
73089;SDS011;61269;49.450;8.610;2023-04-07T01:39:05;7.13;;;2.87;;
73089;SDS011;61269;49.450;8.610;2023-04-07T01:41:34;6.70;;;3.05;;
73089;SDS011;61269;49.450;8.610;2023-04-07T01:44:03;8.55;;;3.80;;
73089;SDS011;61269;49.450;8.610;2023-04-07T01:46:33;6.20;;;2.63;;
73089;SDS011;61269;49.450;8.610;2023-04-07T01:49:03;5.95;;;3.25;;
73089;SDS011;61269;49.450;8.610;2023-04-07T01:51:32;5.90;;;2.97;;
73089;SDS011;61269;49.450;8.610;2023-04-07T01:54:00;6.45;;;3.03;;
73089;SDS011;61269;49.450;8.610;2023-04-07T01:56:28;9.02;;;3.33;;
73089;SDS011;61269;49.450;8.610;2023-04-07T01:58:58;7.20;;;3.13;;
73089;SDS011;61269;49.450;8.610;2023-04-07T02:01:26;5.85;;;2.88;;
73089;SDS011;61269;49.450;8.610;2023-04-07T02:03:59;6.73;;;2.97;;
73089;SDS011;61269;49.450;8.610;2023-04-07T02:06:37;5.70;;;2.65;;
73089;SDS011;61269;49.450;8.610;2023-04-07T02:09:09;6.50;;;3.50;;
73089;SDS011;61269;49.450;8.610;2023-04-07T02:11:38;6.88;;;3.50;;
73089;SDS011;61269;49.450;8.610;2023-04-07T02:14:07;7.03;;;3.40;;
73089;SDS011;61269;49.450;8.610;2023-04-07T02:16:51;6.27;;;2.93;;
73089;SDS011;61269;49.450;8.610;2023-04-07T02:19:20;6.80;;;2.83;;
73089;SDS011;61269;49.450;8.610;2023-04-07T02:21:50;5.32;;;2.45;;
73089;SDS011;61269;49.450;8.610;2023-04-07T02:24:19;7.63;;;3.50;;
73089;SDS011;61269;49.450;8.610;2023-04-07T02:26:48;7.47;;;2.97;;
73089;SDS011;61269;49.450;8.610;2023-04-07T02:29:16;7.67;;;3.00;;
73089;SDS011;61269;49.450;8.610;2023-04-07T02:31:45;7.22;;;2.97;;
73089;SDS011;61269;49.450;8.610;2023-04-07T02:34:13;5.35;;;2.90;;
73089;SDS011;61269;49.450;8.610;2023-04-07T02:36:41;5.97;;;2.85;;
73089;SDS011;61269;49.450;8.610;2023-04-07T02:39:10;7.57;;;3.47;;
73089;SDS011;61269;49.450;8.610;2023-04-07T02:41:40;5.47;;;2.67;;
73089;SDS011;61269;49.450;8.610;2023-04-07T02:44:08;6.65;;;3.28;;
73089;SDS011;61269;49.450;8.610;2023-04-07T02:46:36;6.63;;;3.35;;
73089;SDS011;61269;49.450;8.610;2023-04-07T02:49:04;7.15;;;2.85;;
73089;SDS011;61269;49.450;8.610;2023-04-07T02:51:33;5.95;;;2.90;;
73089;SDS011;61269;49.450;8.610;2023-04-07T02:54:01;5.93;;;3.00;;
73089;SDS011;61269;49.450;8.610;2023-04-07T02:56:30;7.45;;;3.47;;
73089;SDS011;61269;49.450;8.610;2023-04-07T02:58:58;7.35;;;3.28;;
73089;SDS011;61269;49.450;8.610;2023-04-07T03:01:28;7.78;;;3.42;;
73089;SDS011;61269;49.450;8.610;2023-04-07T03:03:56;6.50;;;3.20;;
73089;SDS011;61269;49.450;8.610;2023-04-07T03:06:25;7.53;;;3.10;;
73089;SDS011;61269;49.450;8.610;2023-04-07T03:09:01;6.57;;;3.67;;
73089;SDS011;61269;49.450;8.610;2023-04-07T03:11:31;9.63;;;3.50;;
73089;SDS011;61269;49.450;8.610;2023-04-07T03:13:59;8.98;;;3.30;;
73089;SDS011;61269;49.450;8.610;2023-04-07T03:16:29;8.45;;;3.28;;
73089;SDS011;61269;49.450;8.610;2023-04-07T03:19:06;8.37;;;3.40;;
73089;SDS011;61269;49.450;8.610;2023-04-07T03:21:38;7.45;;;2.97;;
73089;SDS011;61269;49.450;8.610;2023-04-07T03:24:07;6.55;;;3.00;;
73089;SDS011;61269;49.450;8.610;2023-04-07T03:26:37;7.53;;;3.40;;
73089;SDS011;61269;49.450;8.610;2023-04-07T03:29:13;9.35;;;3.97;;
73089;SDS011;61269;49.450;8.610;2023-04-07T03:31:42;7.20;;;3.97;;
73089;SDS011;61269;49.450;8.610;2023-04-07T03:34:13;6.63;;;3.15;;
73089;SDS011;61269;49.450;8.610;2023-04-07T03:36:42;7.05;;;3.38;;
73089;SDS011;61269;49.450;8.610;2023-04-07T03:39:10;5.90;;;2.92;;
73089;SDS011;61269;49.450;8.610;2023-04-07T03:41:40;6.53;;;3.28;;
73089;SDS011;61269;49.450;8.610;2023-04-07T03:44:08;6.60;;;2.57;;
73089;SDS011;61269;49.450;8.610;2023-04-07T03:46:37;6.28;;;2.67;;
73089;SDS011;61269;49.450;8.610;2023-04-07T03:49:06;7.72;;;3.63;;
73089;SDS011;61269;49.450;8.610;2023-04-07T03:51:35;8.18;;;3.13;;
73089;SDS011;61269;49.450;8.610;2023-04-07T03:54:10;7.10;;;3.17;;
73089;SDS011;61269;49.450;8.610;2023-04-07T03:56:42;7.03;;;3.03;;
73089;SDS011;61269;49.450;8.610;2023-04-07T03:59:12;7.93;;;3.38;;
73089;SDS011;61269;49.450;8.610;2023-04-07T04:01:51;6.82;;;3.17;;
73089;SDS011;61269;49.450;8.610;2023-04-07T04:04:19;6.85;;;2.72;;
73089;SDS011;61269;49.450;8.610;2023-04-07T04:06:48;6.93;;;2.85;;
73089;SDS011;61269;49.450;8.610;2023-04-07T04:09:36;6.70;;;3.23;;
73089;SDS011;61269;49.450;8.610;2023-04-07T04:12:06;7.78;;;3.25;;
73089;SDS011;61269;49.450;8.610;2023-04-07T04:14:41;8.25;;;3.55;;
73089;SDS011;61269;49.450;8.610;2023-04-07T04:17:11;7.20;;;2.70;;
73089;SDS011;61269;49.450;8.610;2023-04-07T04:19:43;8.10;;;3.45;;
73089;SDS011;61269;49.450;8.610;2023-04-07T04:22:26;8.97;;;3.17;;
73089;SDS011;61269;49.450;8.610;2023-04-07T04:24:56;6.03;;;2.97;;
73089;SDS011;61269;49.450;8.610;2023-04-07T04:27:28;6.80;;;2.88;;
73089;SDS011;61269;49.450;8.610;2023-04-07T04:30:16;6.93;;;3.47;;
73089;SDS011;61269;49.450;8.610;2023-04-07T04:32:54;6.63;;;3.13;;
73089;SDS011;61269;49.450;8.610;2023-04-07T04:35:33;6.50;;;3.23;;
73089;SDS011;61269;49.450;8.610;2023-04-07T04:38:11;10.52;;;4.07;;
73089;SDS011;61269;49.450;8.610;2023-04-07T04:40:44;8.90;;;3.63;;
73089;SDS011;61269;49.450;8.610;2023-04-07T04:43:15;6.85;;;2.78;;
73089;SDS011;61269;49.450;8.610;2023-04-07T04:45:43;6.97;;;3.30;;
73089;SDS011;61269;49.450;8.610;2023-04-07T04:48:14;5.60;;;2.80;;
73089;SDS011;61269;49.450;8.610;2023-04-07T04:50:43;7.25;;;3.40;;
73089;SDS011;61269;49.450;8.610;2023-04-07T04:53:12;8.65;;;3.45;;
73089;SDS011;61269;49.450;8.610;2023-04-07T04:55:48;8.80;;;3.78;;
73089;SDS011;61269;49.450;8.610;2023-04-07T04:58:24;8.13;;;3.17;;
73089;SDS011;61269;49.450;8.610;2023-04-07T05:00:55;7.53;;;3.80;;
73089;SDS011;61269;49.450;8.610;2023-04-07T05:03:31;6.90;;;3.30;;
73089;SDS011;61269;49.450;8.610;2023-04-07T05:06:02;8.00;;;3.97;;
73089;SDS011;61269;49.450;8.610;2023-04-07T05:08:32;8.00;;;3.92;;
73089;SDS011;61269;49.450;8.610;2023-04-07T05:11:00;6.95;;;3.25;;
73089;SDS011;61269;49.450;8.610;2023-04-07T05:13:33;8.73;;;3.63;;
73089;SDS011;61269;49.450;8.610;2023-04-07T05:16:03;8.20;;;3.70;;
73089;SDS011;61269;49.450;8.610;2023-04-07T05:18:32;8.35;;;3.80;;
73089;SDS011;61269;49.450;8.610;2023-04-07T05:21:01;8.07;;;3.83;;
73089;SDS011;61269;49.450;8.610;2023-04-07T05:23:31;7.65;;;3.92;;
73089;SDS011;61269;49.450;8.610;2023-04-07T05:25:59;7.97;;;3.80;;
73089;SDS011;61269;49.450;8.610;2023-04-07T05:28:28;8.13;;;3.80;;
73089;SDS011;61269;49.450;8.610;2023-04-07T05:31:01;8.48;;;3.90;;
73089;SDS011;61269;49.450;8.610;2023-04-07T05:33:32;8.55;;;4.15;;
73089;SDS011;61269;49.450;8.610;2023-04-07T05:36:02;8.27;;;4.15;;
73089;SDS011;61269;49.450;8.610;2023-04-07T05:38:31;7.33;;;3.53;;
73089;SDS011;61269;49.450;8.610;2023-04-07T05:41:07;8.27;;;3.95;;
73089;SDS011;61269;49.450;8.610;2023-04-07T05:43:36;9.48;;;3.85;;
73089;SDS011;61269;49.450;8.610;2023-04-07T05:46:06;9.38;;;4.22;;
73089;SDS011;61269;49.450;8.610;2023-04-07T05:48:43;8.68;;;4.05;;
73089;SDS011;61269;49.450;8.610;2023-04-07T05:51:12;8.90;;;3.97;;
73089;SDS011;61269;49.450;8.610;2023-04-07T05:53:41;9.52;;;3.47;;
73089;SDS011;61269;49.450;8.610;2023-04-07T05:56:09;7.72;;;3.80;;
73089;SDS011;61269;49.450;8.610;2023-04-07T05:58:43;7.35;;;3.67;;
73089;SDS011;61269;49.450;8.610;2023-04-07T06:01:14;9.38;;;3.60;;
73089;SDS011;61269;49.450;8.610;2023-04-07T06:03:43;9.50;;;3.50;;
73089;SDS011;61269;49.450;8.610;2023-04-07T06:06:23;10.00;;;4.25;;
73089;SDS011;61269;49.450;8.610;2023-04-07T06:08:52;6.43;;;3.15;;
73089;SDS011;61269;49.450;8.610;2023-04-07T06:11:22;9.82;;;3.55;;
73089;SDS011;61269;49.450;8.610;2023-04-07T06:13:50;8.70;;;4.13;;
73089;SDS011;61269;49.450;8.610;2023-04-07T06:16:19;10.07;;;4.20;;
73089;SDS011;61269;49.450;8.610;2023-04-07T06:18:48;8.45;;;3.90;;
73089;SDS011;61269;49.450;8.610;2023-04-07T06:21:16;9.80;;;3.45;;
73089;SDS011;61269;49.450;8.610;2023-04-07T06:23:45;10.05;;;4.60;;
73089;SDS011;61269;49.450;8.610;2023-04-07T06:26:13;8.00;;;3.90;;
73089;SDS011;61269;49.450;8.610;2023-04-07T06:28:42;8.73;;;4.03;;
73089;SDS011;61269;49.450;8.610;2023-04-07T06:31:10;8.23;;;4.10;;
73089;SDS011;61269;49.450;8.610;2023-04-07T06:33:40;8.68;;;4.03;;
73089;SDS011;61269;49.450;8.610;2023-04-07T06:36:08;7.68;;;4.07;;
73089;SDS011;61269;49.450;8.610;2023-04-07T06:38:36;10.15;;;3.83;;
73089;SDS011;61269;49.450;8.610;2023-04-07T06:41:05;8.10;;;3.97;;
73089;SDS011;61269;49.450;8.610;2023-04-07T06:43:34;9.35;;;4.18;;
73089;SDS011;61269;49.450;8.610;2023-04-07T06:46:03;8.32;;;4.20;;
73089;SDS011;61269;49.450;8.610;2023-04-07T06:48:32;9.55;;;4.43;;
73089;SDS011;61269;49.450;8.610;2023-04-07T06:51:01;9.80;;;4.43;;
73089;SDS011;61269;49.450;8.610;2023-04-07T06:53:30;8.60;;;4.03;;
73089;SDS011;61269;49.450;8.610;2023-04-07T06:56:04;8.40;;;4.13;;
73089;SDS011;61269;49.450;8.610;2023-04-07T06:58:33;8.48;;;4.13;;
73089;SDS011;61269;49.450;8.610;2023-04-07T07:01:02;7.45;;;3.25;;
73089;SDS011;61269;49.450;8.610;2023-04-07T07:03:32;9.13;;;4.07;;
73089;SDS011;61269;49.450;8.610;2023-04-07T07:06:01;9.43;;;4.43;;
73089;SDS011;61269;49.450;8.610;2023-04-07T07:08:30;10.00;;;3.83;;
73089;SDS011;61269;49.450;8.610;2023-04-07T07:10:58;9.02;;;3.63;;
73089;SDS011;61269;49.450;8.610;2023-04-07T07:13:27;9.32;;;4.15;;
73089;SDS011;61269;49.450;8.610;2023-04-07T07:15:55;9.13;;;3.47;;
73089;SDS011;61269;49.450;8.610;2023-04-07T07:18:23;7.20;;;3.60;;
73089;SDS011;61269;49.450;8.610;2023-04-07T07:20:51;7.63;;;3.83;;
73089;SDS011;61269;49.450;8.610;2023-04-07T07:23:21;8.70;;;3.75;;
73089;SDS011;61269;49.450;8.610;2023-04-07T07:25:49;8.40;;;4.00;;
73089;SDS011;61269;49.450;8.610;2023-04-07T07:28:17;8.70;;;3.63;;
73089;SDS011;61269;49.450;8.610;2023-04-07T07:30:47;8.83;;;3.53;;
73089;SDS011;61269;49.450;8.610;2023-04-07T07:33:15;6.95;;;3.20;;
73089;SDS011;61269;49.450;8.610;2023-04-07T07:35:44;8.27;;;3.30;;
73089;SDS011;61269;49.450;8.610;2023-04-07T07:38:12;6.15;;;3.17;;
73089;SDS011;61269;49.450;8.610;2023-04-07T07:40:41;6.97;;;3.00;;
73089;SDS011;61269;49.450;8.610;2023-04-07T07:43:10;7.43;;;2.53;;
73089;SDS011;61269;49.450;8.610;2023-04-07T07:45:38;7.30;;;2.63;;
73089;SDS011;61269;49.450;8.610;2023-04-07T07:48:06;7.72;;;3.17;;
73089;SDS011;61269;49.450;8.610;2023-04-07T07:50:34;7.93;;;3.15;;
73089;SDS011;61269;49.450;8.610;2023-04-07T07:53:03;7.22;;;3.00;;
73089;SDS011;61269;49.450;8.610;2023-04-07T07:55:31;7.30;;;2.77;;
73089;SDS011;61269;49.450;8.610;2023-04-07T07:58:00;5.93;;;2.63;;
73089;SDS011;61269;49.450;8.610;2023-04-07T08:00:28;6.63;;;3.15;;
73089;SDS011;61269;49.450;8.610;2023-04-07T08:02:57;6.43;;;2.78;;
73089;SDS011;61269;49.450;8.610;2023-04-07T08:05:26;5.28;;;2.47;;
73089;SDS011;61269;49.450;8.610;2023-04-07T08:07:54;9.07;;;3.53;;
73089;SDS011;61269;49.450;8.610;2023-04-07T08:10:22;8.00;;;3.45;;
73089;SDS011;61269;49.450;8.610;2023-04-07T08:12:51;7.68;;;2.67;;
73089;SDS011;61269;49.450;8.610;2023-04-07T08:15:20;6.30;;;3.17;;
73089;SDS011;61269;49.450;8.610;2023-04-07T08:17:49;5.90;;;2.72;;
73089;SDS011;61269;49.450;8.610;2023-04-07T08:20:19;7.33;;;2.80;;
73089;SDS011;61269;49.450;8.610;2023-04-07T08:22:47;7.63;;;2.72;;
73089;SDS011;61269;49.450;8.610;2023-04-07T08:25:15;6.75;;;3.30;;
73089;SDS011;61269;49.450;8.610;2023-04-07T08:27:43;7.55;;;3.15;;
73089;SDS011;61269;49.450;8.610;2023-04-07T08:30:11;7.03;;;2.78;;
73089;SDS011;61269;49.450;8.610;2023-04-07T08:32:42;5.67;;;2.70;;
73089;SDS011;61269;49.450;8.610;2023-04-07T08:35:11;5.70;;;2.60;;
73089;SDS011;61269;49.450;8.610;2023-04-07T08:37:39;6.13;;;2.60;;
73089;SDS011;61269;49.450;8.610;2023-04-07T08:40:09;5.10;;;2.60;;
73089;SDS011;61269;49.450;8.610;2023-04-07T08:42:39;6.05;;;2.80;;
73089;SDS011;61269;49.450;8.610;2023-04-07T08:45:08;6.73;;;2.83;;
73089;SDS011;61269;49.450;8.610;2023-04-07T08:47:37;5.70;;;2.40;;
73089;SDS011;61269;49.450;8.610;2023-04-07T08:50:09;6.78;;;2.80;;
73089;SDS011;61269;49.450;8.610;2023-04-07T08:52:38;6.47;;;2.50;;
73089;SDS011;61269;49.450;8.610;2023-04-07T08:55:08;6.80;;;2.75;;
73089;SDS011;61269;49.450;8.610;2023-04-07T08:57:37;6.57;;;2.87;;
73089;SDS011;61269;49.450;8.610;2023-04-07T09:00:06;6.50;;;2.67;;
73089;SDS011;61269;49.450;8.610;2023-04-07T09:02:35;5.90;;;2.53;;
73089;SDS011;61269;49.450;8.610;2023-04-07T09:05:05;7.20;;;2.75;;
73089;SDS011;61269;49.450;8.610;2023-04-07T09:07:36;6.95;;;2.80;;
73089;SDS011;61269;49.450;8.610;2023-04-07T09:10:06;6.10;;;2.70;;
73089;SDS011;61269;49.450;8.610;2023-04-07T09:12:35;6.72;;;2.60;;
73089;SDS011;61269;49.450;8.610;2023-04-07T09:15:04;5.18;;;2.47;;
73089;SDS011;61269;49.450;8.610;2023-04-07T09:17:34;6.05;;;2.58;;
73089;SDS011;61269;49.450;8.610;2023-04-07T09:20:02;6.10;;;2.50;;
73089;SDS011;61269;49.450;8.610;2023-04-07T09:22:36;6.90;;;2.63;;
73089;SDS011;61269;49.450;8.610;2023-04-07T09:25:09;5.78;;;2.33;;
73089;SDS011;61269;49.450;8.610;2023-04-07T09:27:39;5.10;;;2.30;;
73089;SDS011;61269;49.450;8.610;2023-04-07T09:30:10;3.85;;;2.15;;
73089;SDS011;61269;49.450;8.610;2023-04-07T09:32:40;6.90;;;2.60;;
73089;SDS011;61269;49.450;8.610;2023-04-07T09:35:09;7.53;;;2.57;;
73089;SDS011;61269;49.450;8.610;2023-04-07T09:37:38;6.82;;;3.00;;
73089;SDS011;61269;49.450;8.610;2023-04-07T09:40:08;5.97;;;2.78;;
73089;SDS011;61269;49.450;8.610;2023-04-07T09:42:43;6.07;;;2.45;;
73089;SDS011;61269;49.450;8.610;2023-04-07T09:45:12;7.05;;;3.00;;
73089;SDS011;61269;49.450;8.610;2023-04-07T09:47:57;7.47;;;3.30;;
73089;SDS011;61269;49.450;8.610;2023-04-07T09:50:32;7.95;;;2.97;;
73089;SDS011;61269;49.450;8.610;2023-04-07T09:53:03;6.47;;;3.33;;
73089;SDS011;61269;49.450;8.610;2023-04-07T09:55:31;5.88;;;2.30;;
73089;SDS011;61269;49.450;8.610;2023-04-07T09:58:00;8.85;;;3.00;;
73089;SDS011;61269;49.450;8.610;2023-04-07T10:00:29;6.90;;;2.33;;
73089;SDS011;61269;49.450;8.610;2023-04-07T10:02:57;6.47;;;2.50;;
73089;SDS011;61269;49.450;8.610;2023-04-07T10:05:26;5.80;;;2.38;;
73089;SDS011;61269;49.450;8.610;2023-04-07T10:07:54;5.80;;;2.40;;
73089;SDS011;61269;49.450;8.610;2023-04-07T10:10:24;5.15;;;2.33;;
73089;SDS011;61269;49.450;8.610;2023-04-07T10:12:54;4.17;;;2.00;;
73089;SDS011;61269;49.450;8.610;2023-04-07T10:15:23;5.13;;;2.28;;
73089;SDS011;61269;49.450;8.610;2023-04-07T10:17:52;4.95;;;2.03;;
73089;SDS011;61269;49.450;8.610;2023-04-07T10:20:22;5.40;;;1.83;;
73089;SDS011;61269;49.450;8.610;2023-04-07T10:22:51;6.15;;;1.98;;
73089;SDS011;61269;49.450;8.610;2023-04-07T10:25:21;5.23;;;2.23;;
73089;SDS011;61269;49.450;8.610;2023-04-07T10:27:53;4.03;;;2.10;;
73089;SDS011;61269;49.450;8.610;2023-04-07T10:30:24;4.60;;;1.88;;
73089;SDS011;61269;49.450;8.610;2023-04-07T10:32:53;4.70;;;2.22;;
73089;SDS011;61269;49.450;8.610;2023-04-07T10:35:23;4.45;;;1.98;;
73089;SDS011;61269;49.450;8.610;2023-04-07T10:38:10;5.50;;;2.27;;
73089;SDS011;61269;49.450;8.610;2023-04-07T10:40:42;5.93;;;2.00;;
73089;SDS011;61269;49.450;8.610;2023-04-07T10:43:12;6.82;;;2.47;;
73089;SDS011;61269;49.450;8.610;2023-04-07T10:46:04;4.70;;;2.22;;
73089;SDS011;61269;49.450;8.610;2023-04-07T10:48:32;3.63;;;1.92;;
73089;SDS011;61269;49.450;8.610;2023-04-07T10:51:10;5.43;;;2.20;;
73089;SDS011;61269;49.450;8.610;2023-04-07T10:57:06;4.65;;;2.25;;
73089;SDS011;61269;49.450;8.610;2023-04-07T10:59:41;6.00;;;2.30;;
73089;SDS011;61269;49.450;8.610;2023-04-07T11:02:31;5.05;;;1.63;;
73089;SDS011;61269;49.450;8.610;2023-04-07T11:05:03;4.67;;;2.00;;
73089;SDS011;61269;49.450;8.610;2023-04-07T11:07:46;5.88;;;2.22;;
73089;SDS011;61269;49.450;8.610;2023-04-07T11:10:16;3.78;;;1.60;;
73089;SDS011;61269;49.450;8.610;2023-04-07T11:12:58;2.25;;;1.10;;
73089;SDS011;61269;49.450;8.610;2023-04-07T11:15:35;3.40;;;1.60;;
73089;SDS011;61269;49.450;8.610;2023-04-07T11:18:08;2.73;;;1.40;;
73089;SDS011;61269;49.450;8.610;2023-04-07T11:20:39;2.03;;;1.00;;
73089;SDS011;61269;49.450;8.610;2023-04-07T11:23:11;3.33;;;1.42;;
73089;SDS011;61269;49.450;8.610;2023-04-07T11:25:41;2.95;;;1.23;;
73089;SDS011;61269;49.450;8.610;2023-04-07T11:28:10;2.45;;;0.90;;
73089;SDS011;61269;49.450;8.610;2023-04-07T11:30:45;3.13;;;1.20;;
73089;SDS011;61269;49.450;8.610;2023-04-07T11:33:15;3.17;;;1.48;;
73089;SDS011;61269;49.450;8.610;2023-04-07T11:35:51;3.95;;;1.40;;
73089;SDS011;61269;49.450;8.610;2023-04-07T11:38:21;4.10;;;1.80;;
73089;SDS011;61269;49.450;8.610;2023-04-07T11:40:51;3.83;;;1.45;;
73089;SDS011;61269;49.450;8.610;2023-04-07T11:43:19;3.30;;;1.40;;
73089;SDS011;61269;49.450;8.610;2023-04-07T11:46:06;3.75;;;1.63;;
73089;SDS011;61269;49.450;8.610;2023-04-07T11:48:35;3.63;;;1.73;;
73089;SDS011;61269;49.450;8.610;2023-04-07T11:51:05;4.20;;;1.73;;
73089;SDS011;61269;49.450;8.610;2023-04-07T11:53:34;3.90;;;1.52;;
73089;SDS011;61269;49.450;8.610;2023-04-07T11:56:04;3.73;;;1.40;;
73089;SDS011;61269;49.450;8.610;2023-04-07T11:58:35;3.47;;;1.63;;
73089;SDS011;61269;49.450;8.610;2023-04-07T12:01:05;2.67;;;1.30;;
73089;SDS011;61269;49.450;8.610;2023-04-07T12:03:35;7.10;;;2.60;;
73089;SDS011;61269;49.450;8.610;2023-04-07T12:06:05;6.07;;;2.35;;
73089;SDS011;61269;49.450;8.610;2023-04-07T12:08:37;14.77;;;6.57;;
73089;SDS011;61269;49.450;8.610;2023-04-07T12:11:06;9.05;;;3.28;;
73089;SDS011;61269;49.450;8.610;2023-04-07T12:13:36;4.47;;;1.70;;
73089;SDS011;61269;49.450;8.610;2023-04-07T12:16:06;4.45;;;1.70;;
73089;SDS011;61269;49.450;8.610;2023-04-07T12:18:34;4.35;;;1.50;;
73089;SDS011;61269;49.450;8.610;2023-04-07T12:21:03;10.77;;;2.80;;
73089;SDS011;61269;49.450;8.610;2023-04-07T12:23:31;6.32;;;2.63;;
73089;SDS011;61269;49.450;8.610;2023-04-07T12:25:59;3.60;;;1.50;;
73089;SDS011;61269;49.450;8.610;2023-04-07T12:28:28;4.00;;;1.40;;
73089;SDS011;61269;49.450;8.610;2023-04-07T12:30:56;4.95;;;2.05;;
73089;SDS011;61269;49.450;8.610;2023-04-07T12:33:25;4.20;;;1.30;;
73089;SDS011;61269;49.450;8.610;2023-04-07T12:35:54;3.00;;;1.00;;
73089;SDS011;61269;49.450;8.610;2023-04-07T12:38:24;3.28;;;1.40;;
73089;SDS011;61269;49.450;8.610;2023-04-07T12:40:52;2.55;;;1.00;;
73089;SDS011;61269;49.450;8.610;2023-04-07T12:43:23;3.58;;;1.63;;
73089;SDS011;61269;49.450;8.610;2023-04-07T12:45:51;2.73;;;1.07;;
73089;SDS011;61269;49.450;8.610;2023-04-07T12:48:19;2.17;;;1.08;;
73089;SDS011;61269;49.450;8.610;2023-04-07T12:50:49;2.42;;;1.00;;
73089;SDS011;61269;49.450;8.610;2023-04-07T12:53:17;2.83;;;1.20;;
73089;SDS011;61269;49.450;8.610;2023-04-07T12:55:46;3.40;;;1.38;;
73089;SDS011;61269;49.450;8.610;2023-04-07T12:58:16;5.20;;;1.77;;
73089;SDS011;61269;49.450;8.610;2023-04-07T13:00:45;5.10;;;1.75;;
73089;SDS011;61269;49.450;8.610;2023-04-07T13:03:14;6.40;;;2.70;;
73089;SDS011;61269;49.450;8.610;2023-04-07T13:05:42;4.78;;;1.45;;
73089;SDS011;61269;49.450;8.610;2023-04-07T13:08:12;3.08;;;1.55;;
73089;SDS011;61269;49.450;8.610;2023-04-07T13:10:40;2.87;;;1.30;;
73089;SDS011;61269;49.450;8.610;2023-04-07T13:13:09;2.75;;;1.20;;
73089;SDS011;61269;49.450;8.610;2023-04-07T13:15:37;4.03;;;1.92;;
73089;SDS011;61269;49.450;8.610;2023-04-07T13:18:05;4.00;;;1.25;;
73089;SDS011;61269;49.450;8.610;2023-04-07T13:20:34;3.20;;;1.40;;
73089;SDS011;61269;49.450;8.610;2023-04-07T13:23:02;3.03;;;1.13;;
73089;SDS011;61269;49.450;8.610;2023-04-07T13:25:36;3.38;;;1.48;;
73089;SDS011;61269;49.450;8.610;2023-04-07T13:28:04;3.38;;;1.38;;
73089;SDS011;61269;49.450;8.610;2023-04-07T13:30:33;3.22;;;1.30;;
73089;SDS011;61269;49.450;8.610;2023-04-07T13:33:01;2.08;;;1.00;;
73089;SDS011;61269;49.450;8.610;2023-04-07T13:35:29;2.33;;;1.00;;
73089;SDS011;61269;49.450;8.610;2023-04-07T13:38:01;2.22;;;1.23;;
73089;SDS011;61269;49.450;8.610;2023-04-07T13:40:30;2.63;;;1.13;;
73089;SDS011;61269;49.450;8.610;2023-04-07T13:42:59;2.80;;;1.23;;
73089;SDS011;61269;49.450;8.610;2023-04-07T13:45:27;2.40;;;1.00;;
73089;SDS011;61269;49.450;8.610;2023-04-07T13:47:55;2.67;;;1.40;;
73089;SDS011;61269;49.450;8.610;2023-04-07T13:50:24;2.13;;;1.38;;
73089;SDS011;61269;49.450;8.610;2023-04-07T13:52:52;2.50;;;1.40;;
73089;SDS011;61269;49.450;8.610;2023-04-07T13:55:21;2.30;;;1.33;;
73089;SDS011;61269;49.450;8.610;2023-04-07T13:57:49;1.92;;;0.70;;
73089;SDS011;61269;49.450;8.610;2023-04-07T14:00:19;1.33;;;0.70;;
73089;SDS011;61269;49.450;8.610;2023-04-07T14:02:47;1.20;;;0.50;;
73089;SDS011;61269;49.450;8.610;2023-04-07T14:05:16;1.50;;;0.70;;
73089;SDS011;61269;49.450;8.610;2023-04-07T14:07:44;1.92;;;1.02;;
73089;SDS011;61269;49.450;8.610;2023-04-07T14:10:13;1.75;;;0.77;;
73089;SDS011;61269;49.450;8.610;2023-04-07T14:12:41;1.57;;;1.00;;
73089;SDS011;61269;49.450;8.610;2023-04-07T14:15:09;2.47;;;1.35;;
73089;SDS011;61269;49.450;8.610;2023-04-07T14:17:39;2.03;;;0.93;;
73089;SDS011;61269;49.450;8.610;2023-04-07T14:20:07;3.08;;;1.15;;
73089;SDS011;61269;49.450;8.610;2023-04-07T14:22:36;2.75;;;1.27;;
73089;SDS011;61269;49.450;8.610;2023-04-07T14:25:04;2.87;;;1.30;;
73089;SDS011;61269;49.450;8.610;2023-04-07T14:27:33;2.05;;;1.10;;
73089;SDS011;61269;49.450;8.610;2023-04-07T14:30:02;2.45;;;1.55;;
73089;SDS011;61269;49.450;8.610;2023-04-07T14:32:30;1.75;;;0.90;;
73089;SDS011;61269;49.450;8.610;2023-04-07T14:35:01;2.03;;;0.98;;
73089;SDS011;61269;49.450;8.610;2023-04-07T14:37:29;2.00;;;1.10;;
73089;SDS011;61269;49.450;8.610;2023-04-07T14:39:58;2.50;;;0.90;;
73089;SDS011;61269;49.450;8.610;2023-04-07T14:42:29;2.05;;;0.77;;
73089;SDS011;61269;49.450;8.610;2023-04-07T14:44:57;2.00;;;1.08;;
73089;SDS011;61269;49.450;8.610;2023-04-07T14:47:27;1.88;;;0.70;;
73089;SDS011;61269;49.450;8.610;2023-04-07T14:49:55;1.27;;;0.60;;
73089;SDS011;61269;49.450;8.610;2023-04-07T14:52:25;2.35;;;0.95;;
73089;SDS011;61269;49.450;8.610;2023-04-07T14:54:53;1.88;;;0.95;;
73089;SDS011;61269;49.450;8.610;2023-04-07T14:57:25;1.70;;;0.90;;
73089;SDS011;61269;49.450;8.610;2023-04-07T14:59:53;2.83;;;1.20;;
73089;SDS011;61269;49.450;8.610;2023-04-07T15:02:21;1.73;;;0.80;;
73089;SDS011;61269;49.450;8.610;2023-04-07T15:04:50;2.72;;;1.30;;
73089;SDS011;61269;49.450;8.610;2023-04-07T15:07:18;3.42;;;1.50;;
73089;SDS011;61269;49.450;8.610;2023-04-07T15:09:48;3.60;;;1.70;;